x

Sheboygan, Wi (sgnw3) Weather Station

2:00am - Mon 20th Feb 2017 All times are CST. -6 hours from GMT.

  • Wind
    3mph, 5mph gusts
  • Air Temp 36°f
  • Sea Pressure 1021.2mb
  • Sheboygan, Wi
  • Sheboygan, Wi

More Historic Weather Station data

Upgrade to MSW Pro to gain access to the past 30 days of data for over 8000 Wavebouys and Weather Stations around the globe.

Join Pro

Comparision Forecast

View Surf forecast
   
Mon 02/20 2:00am 3 5 mph 1021.2mb 36f
1:00am 5
mph
1021.2mb 37f
12:00am  -  1 mph 1021.1mb 38f
Sun 02/19 11:00pm 1
mph
1020.7mb 39f
10:00pm  -  mph 1020.4mb 38f
9:00pm 1 2 mph 1020mb 38f
8:00pm 1
mph
1020mb 39f
7:00pm  -  1 mph 1019.6mb 39f
6:00pm  -  1 mph 1019mb 40f
5:00pm 1 2 mph 1018.7mb 40f
4:00pm 5 6 mph 1018mb 41f
3:00pm 5 6 mph 1018mb 42f
2:00pm 6
mph
1017.7mb 44f
1:00pm 7
mph
1017.7mb 46f
12:00pm 5
mph
1017.7mb 47f
11:00am 3 5 mph 1017.7mb 49f
10:00am 7
mph
1017.2mb 49f
9:00am 2 5 mph 1017mb 48f
8:00am 6 8 mph 1016.2mb 47f
7:00am 13 14 mph 1015.1mb 44f
6:00am 14 16 mph 1014.1mb 45f
5:00am 13 14 mph 1013.2mb 46f
4:00am 9 11 mph 1012.5mb 46f
3:00am 10 11 mph 1011.6mb 48f
2:00am 5 6 mph 1010.9mb 47f
1:00am 9 10 mph 1010.3mb 48f
12:00am 14 17 mph 1009.8mb 50f
Sat 02/18 11:00pm 13 17 mph 1009.6mb 51f
10:00pm 11 16 mph 1008.8mb 52f
9:00pm 6 7 mph 1008.4mb 51f
8:00pm 5 6 mph 1007.9mb 51f
7:00pm 7 9 mph 1007.7mb 53f
6:00pm 8 9 mph 1006.9mb 55f
5:00pm 10 11 mph 1006.1mb 58f
4:00pm 9 10 mph 1005.5mb 59f
3:00pm 10 14 mph 1005.1mb 59f
2:00pm 13 14 mph 1004.6mb 59f
1:00pm 14 16 mph 1004.5mb 58f
12:00pm 11 14 mph 1004.8mb 56f
11:00am 18 23 mph 1004.7mb 52f
10:00am 18 22 mph 1004.3mb 50f
9:00am 22 25 mph 1003.6mb 47f
8:00am 20 24 mph 1003.1mb 45f
7:00am 15 18 mph 1002.4mb 45f
6:00am 14 15 mph 1002.1mb 46f
5:00am 14 17 mph 1001.3mb 48f
4:00am 15 21 mph 1000.7mb 49f
3:00am 15 18 mph 1000.1mb 51f
2:00am 14 15 mph 1000.1mb 51f
1:00am 15 16 mph 999.4mb 53f
12:00am 14 15 mph 999.5mb 53f
Fri 02/17 11:00pm 6 7 mph 999.7mb 46f
10:00pm 8
mph
1000.2mb 45f
9:00pm 6 7 mph 1000.6mb 43f
8:00pm 5
mph
1001.1mb 38f
7:00pm 5
mph
1001.6mb 38f
6:00pm 9
mph
1001.6mb 38f
5:00pm 11 13 mph 1001.6mb 38f
4:00pm 9 10 mph 1001.9mb 37f
3:00pm 11
mph
1002.6mb 37f
2:00pm 10
mph
1002.7mb 37f
1:00pm 10
mph
1003.6mb 36f
12:00pm 10
mph
1004.1mb 36f
11:00am 11
mph
1004.4mb 37f
10:00am 13 14 mph 1004.8mb 36f
9:00am 13 14 mph 1005.5mb 36f
8:00am 10
mph
1005.5mb 35f
7:00am 11 13 mph 1005.2mb 35f
6:00am 11
mph
1005.6mb 35f
5:00am 13 14 mph 1005.6mb 35f
4:00am 13 14 mph 1006.1mb 35f
3:00am 14 15 mph 1006.5mb 35f
2:00am 14 16 mph 1007.1mb 35f
1:00am 15 16 mph 1007.1mb 35f
12:00am 13 14 mph 1007.8mb 35f
Thu 02/16 11:00pm 16 17 mph 1007.8mb 35f
10:00pm 18 21 mph 1008mb 35f
9:00pm 20 22 mph 1008.3mb 34f
8:00pm 18 20 mph 1009.3mb 33f
7:00pm 18 20 mph 1010.2mb 33f
6:00pm 15 16 mph 1010.6mb 32f
5:00pm 15 16 mph 1010.5mb 31f
4:00pm 16 17 mph 1010.7mb 31f
3:00pm 20 22 mph 1010mb 30f
2:00pm 10 13 mph 1011.3mb 29f
1:00pm 11 14 mph 1012.4mb 28f
12:00pm 8 9 mph 1013.9mb 27f
11:00am 6 7 mph 1014.7mb 26f
10:00am 3 5 mph 1014.4mb 24f